Orlando, FL (32825)

12:28 PM EST on December 09, 2016 (GMT -0500)
Union Park | | Change Station

Elev 110 ft 28.56 °N, 81.24 °W | Updated 2 seconds ago

Mostly Cloudy
Mostly Cloudy
57.6 °F
Feels Like 57.6 °F
N
5.0
Wind Variable Wind from NE
Gusts 12.0 mph

Today
High -- | Low -- °F
--% Chance of Precip.
Yesterday
High -- | Low -- °F
Precip. -- in
Pressure 30.33 in
Visibility 10.0 miles
Clouds Clear
Dew Point 47 °F
Humidity 67%
Rainfall 0.05 in
Snow Depth Not available.
7:06 AM 5:28 PM
Waxing Gibbous, 75% visible
METAR KORL 091653Z 01009KT 10SM CLR 13/06 A3032 RMK AO2 SLP271 T01280056
Pressure 30.33 in
Visibility 10.0 miles
Clouds Clear
Dew Point 47 °F
Humidity 67%
Rainfall 0.05 in
Snow Depth Not available.
7:06 AM 5:28 PM
Waxing Gibbous, 75% visible
METAR KORL 091653Z 01009KT 10SM CLR 13/06 A3032 RMK AO2 SLP271 T01280056

10-Day Weather Forecast

Almanac

Astronomy

Dec. 09, 2016 Rise Set
Actual Time
Civil Twilight
Nautical Twilight
Astronomical Twilight
Moon
Length of Visible Light
Length of Day
Tomorrow will be .
, % of the Moon is Illuminated

Today's Extremes

State Highs State Lows

Community

WunderPhotos

Upload Photos

1,956,462 photos uploaded!

WunderBlog® & News

Nearby

Air Quality

  Air Quality AQ Index Pollutant
Not available.

Snow Depth

Station Depth Elevation

Earthquake Activity

City Distance Mag. Time & Date
Minimum magnitude displayed is 2.5.

Coastal Water Temperatures

Place Temperature

Stations

Nearby Weather Stations

Station Location Temp. Windchill Dew Point Humidity Wind Precip. Elev Updated Type
                   

Watches & Warnings

There are currently no watches in effect.